Mardan Weather



Mardan's Current Weather

Temprature 25.35o clear sky

clear sky

Rain: 0 %

Min Temprature25.35o
Max Temprature25.35o
Humidity71
Wind Speed1.4 m/h
Sun Rise06:02:19
Sun Set18:04:09
Current Time: 26-Sep-2022 08:45:09
Lat/Lon: 34.2019, 72.0525




Mardan's Geo Location



Mardan's Weather Forecast

Time Overall Temp Min Temp Max Temp Humidity Wind Speed Rain
26-Sep-2022 (Mon)
11:00:00 light rain 25.390 25.390 27.840 71 0.33 m/h 14 %
14:00:00 clear sky 28.170 28.170 30.170 60 0.29 m/h 0 %
17:00:00 clear sky 29.690 29.690 29.690 59 1.58 m/h 0 %
20:00:00 clear sky 26.190 26.190 26.190 64 1.78 m/h 0 %
23:00:00 clear sky 24.910 24.910 24.910 68 1.57 m/h 0 %
27-Sep-2022 (Tue)
02:00:00 clear sky 24.030 24.030 24.030 70 1.5 m/h 0 %
05:00:00 clear sky 23.270 23.270 23.270 72 1.28 m/h 0 %
08:00:00 clear sky 25.520 25.520 25.520 66 0.94 m/h 0 %
11:00:00 clear sky 29.280 29.280 29.280 54 1.1 m/h 0 %
14:00:00 clear sky 31.480 31.480 31.480 46 0.76 m/h 0 %
17:00:00 clear sky 30.500 30.500 30.500 54 2.2 m/h 0 %
20:00:00 clear sky 26.910 26.910 26.910 61 2.8 m/h 0 %
23:00:00 clear sky 25.790 25.790 25.790 65 1.69 m/h 0 %
28-Sep-2022 (Wed)
02:00:00 clear sky 24.930 24.930 24.930 67 1.17 m/h 0 %
05:00:00 clear sky 24.100 24.100 24.100 68 1.5 m/h 0 %
08:00:00 clear sky 26.190 26.190 26.190 63 1.05 m/h 0 %
11:00:00 clear sky 29.860 29.860 29.860 52 1.46 m/h 0 %
14:00:00 clear sky 31.880 31.880 31.880 45 1.37 m/h 0 %
17:00:00 clear sky 31.050 31.050 31.050 53 1.89 m/h 0 %
20:00:00 light rain 26.710 26.710 26.710 61 2.15 m/h 38 %
23:00:00 light rain 25.250 25.250 25.250 67 1.4 m/h 81 %
29-Sep-2022 (Thu)
02:00:00 light rain 22.940 22.940 22.940 74 2.62 m/h 201 %
05:00:00 light rain 22.140 22.140 22.140 75 1.25 m/h 115 %
08:00:00 light rain 24.170 24.170 24.170 68 0.77 m/h 52 %
11:00:00 clear sky 28.670 28.670 28.670 51 0.54 m/h 0 %
14:00:00 clear sky 31.260 31.260 31.260 45 0.93 m/h 0 %
17:00:00 clear sky 30.610 30.610 30.610 54 1.59 m/h 0 %
20:00:00 light rain 27.130 27.130 27.130 59 2.49 m/h 23 %
23:00:00 light rain 24.880 24.880 24.880 67 2.14 m/h 54 %
30-Sep-2022 (Fri)
02:00:00 light rain 24.100 24.100 24.100 69 1.49 m/h 27 %
05:00:00 clear sky 23.460 23.460 23.460 67 0.67 m/h 0 %
08:00:00 clear sky 25.710 25.710 25.710 59 1.51 m/h 0 %
11:00:00 clear sky 29.970 29.970 29.970 47 0.87 m/h 0 %
14:00:00 clear sky 32.240 32.240 32.240 42 1.08 m/h 0 %
17:00:00 clear sky 31.200 31.200 31.200 51 1.82 m/h 0 %
20:00:00 clear sky 27.800 27.800 27.800 55 2.87 m/h 0 %
23:00:00 scattered clouds 27.440 27.440 27.440 56 1.56 m/h 0 %
01-Oct-2022 (Sat)
02:00:00 broken clouds 26.100 26.100 26.100 59 1.22 m/h 0 %
05:00:00 scattered clouds 24.900 24.900 24.900 61 1.28 m/h 0 %
08:00:00 clear sky 27.080 27.080 27.080 56 0.8 m/h 0 %

Famous Cities (61)